• Join FlightAware (Why Join?)
  • Login
  • US Flag 
01:07PM EDT


 

Airport Tracker/Info


-or-


 

Live Flight TrackerFlight Track Log ✈ SWA34 ✈ 05-May-2013 ✈ KSTL - KCMH

Flight Track Log - Related Links

Times and Time Zones

All times are in EDT time to prevent confusion due to time zone crossing. See the SWA34 flight status page for this flight to view local times or setup timezone preferences in your user account.

Time Position Orientation Groundspeed Altitude Reporting Facility
EDT Latitude Longitude Course Direction KTS MPH feet Rate Location/Type
08:38PM 38.8000 -90.3667 North 194 223 3,700  Level Gateway (St. Louis) TRACON
08:38PM 38.7981 -90.3525 100° East 198 228 4,500 3,000 Climbing Kansas City Center
08:39PM 38.7961 -90.2761 92° East 207 238 7,600 3,120 Climbing Kansas City Center
08:40PM 38.7958 -90.1800 90° East 259 298 10,900 2,760 Climbing Kansas City Center
08:41PM 38.7956 -90.0636 90° East 321 369 13,400 2,760 Climbing Kansas City Center
08:42PM 38.7950 -89.9375 90° East 347 399 16,600 3,120 Climbing Kansas City Center
08:43PM 38.7936 -89.8053 91° East 366 421 19,800 3,000 Climbing Kansas City Center
08:44PM 38.7928 -89.6492 90° East 374 430 22,800 3,060 Climbing Kansas City Center
08:45PM 38.7919 -89.5128 90° East 382 440 26,100 3,240 Climbing Kansas City Center
08:46PM 38.8083 -89.3833 81° East 368 423 29,600 2,580 Climbing Kansas City Center
08:47PM 38.8247 -89.2481 81° East 361 415 31,400 1,740 Climbing Kansas City Center
08:48PM 38.8417 -89.1175 80° East 371 427 33,200 1,560 Climbing Kansas City Center
08:49PM 38.8583 -88.9856 81° East 375 432 34,700 1,260 Climbing Kansas City Center
08:50PM 38.8769 -88.8556 80° East 388 447 35,900 1,020 Climbing Kansas City Center
08:51PM 38.8939 -88.7175 81° East 393 452 36,900 900 Climbing Kansas City Center
08:52PM 38.9156 -88.5486 81° East 404 465 37,800 780 Climbing Kansas City Center
08:53PM 38.9531 -88.4053 71° East 418 481 38,500 1,020 Climbing Kansas City Center
08:54PM 38.9994 -88.2992 61° Northeast 432 497 39,800 1,200 Climbing Indianapolis Center
08:55PM 39.0503 -88.1628 64° Northeast 424 488 40,800 540 Climbing Indianapolis Center
08:56PM 39.0989 -88.0275 65° Northeast 416 479 41,000 60 Climbing Indianapolis Center
08:57PM 39.1497 -87.8883 65° Northeast 422 486 41,000  Level Indianapolis Center
08:58PM 39.2003 -87.7475 65° Northeast 426 490 41,000  Level Indianapolis Center
08:59PM 39.2500 -87.6117 65° Northeast 426 490 41,000  Level Indianapolis Center
09:00PM 39.3075 -87.4467 66° East 423 487 41,000  Level Indianapolis Center
09:02PM 39.3564 -87.3103 65° Northeast 421 484 41,000  Level Indianapolis Center
09:03PM 39.4047 -87.1736 65° Northeast 420 483 41,000  Level Indianapolis Center
09:04PM 39.4517 -87.0397 66° East 413 475 41,000  Level Indianapolis Center
09:05PM 39.4986 -86.9064 65° Northeast 411 473 41,000 -480 Level Indianapolis Center
09:06PM 39.5464 -86.7700 66° East 415 478 40,100 -1,140 Descending Indianapolis Center
09:07PM 39.5950 -86.6294 66° East 428 493 38,700 -1,380 Descending Indianapolis Center
09:08PM 39.6425 -86.4914 66° East 423 487 37,300 -1,500 Descending Indianapolis Center
09:09PM 39.6928 -86.3419 66° East 408 470 35,700 -1,140 Descending Indianapolis Center
09:10PM 39.7389 -86.2081 66° East 405 466 35,000 -360 Descending Indianapolis Center
09:11PM 39.7836 -86.0778 66° East 405 466 35,000  Level Indianapolis Center
09:12PM 39.8292 -85.9439 66° East 407 468 35,000  Level Indianapolis Center
09:13PM 39.8750 -85.8089 66° East 411 473 35,000 -480 Level Indianapolis Center
09:14PM 39.9206 -85.6722 66° East 413 475 34,100 -1,500 Descending Indianapolis Center
09:15PM 39.9644 -85.5042 71° East 410 472 32,000 -1,860 Descending Indianapolis Center
09:16PM 39.9961 -85.3594 74° East 415 478 30,400 -1,500 Descending Indianapolis Center
09:17PM 40.0283 -85.2136 74° East 419 482 29,000 -720 Descending Indianapolis Center
09:18PM 40.0614 -85.0653 74° East 427 491 29,000  Level Indianapolis Center
09:19PM 40.0947 -84.9181 73° East 425 489 29,000 -360 Level Indianapolis Center
09:20PM 40.1269 -84.7669 74° East 429 494 28,300 -1,380 Descending Indianapolis Center
09:21PM 40.1586 -84.6186 74° East 420 483 26,200 -2,100 Descending Indianapolis Center
09:22PM 40.1914 -84.4728 74° East 416 479 24,100 -1,980 Descending Indianapolis Center
09:23PM 40.2219 -84.3278 75° East 408 470 22,200 -1,860 Descending Indianapolis Center
09:24PM 40.2511 -84.1867 75° East 399 459 20,400 -1,800 Descending Indianapolis Center
09:25PM 40.2797 -84.0489 75° East 387 445 18,600 -1,800 Descending Indianapolis Center
09:26PM 40.3075 -83.9150 75° East 378 435 16,800 -1,860 Descending Indianapolis Center
09:27PM 40.3275 -83.8172 75° East 368 423 15,600 -1,620 Descending Indianapolis Center
09:27PM 40.3353 -83.7844 73° East 369 425 15,200 -1,620 Descending Indianapolis Center
09:28PM 40.3536 -83.6919 75° East 361 415 14,000 -1,860 Descending Indianapolis Center
09:28PM 40.3508 -83.6150 93° East 342 394 13,000 -1,680 Descending Indianapolis Center
09:29PM 40.3225 -83.5242 112° Southeast 322 371 11,600 -1,380 Descending Indianapolis Center
09:30PM 40.2789 -83.4342 122° Southeast 295 339 10,500 -1,020 Descending Indianapolis Center
09:31PM 40.2397 -83.4125 157° South 256 295 10,000 -900 Descending Indianapolis Center
09:31PM 40.2133 -83.3944 152° Southeast 263 303 9,600 -1,380 Descending Indianapolis Center
09:32PM 40.1511 -83.3561 155° Southeast 247 284 8,000 -1,620 Descending Indianapolis Center
09:33PM 40.1194 -83.3381 156° South 247 284 7,300 -1,500 Descending Indianapolis Center
09:33PM 40.0869 -83.3181 155° Southeast 248 285 6,500 -1,560 Descending Indianapolis Center
09:33PM 40.0706 -83.2911 128° Southeast 248 285 5,900 -1,560 Descending Indianapolis Center
09:34PM 40.0539 -83.2381 112° Southeast 250 288 4,900 -1,380 Descending Indianapolis Center
09:35PM 40.0436 -83.1981 109° East 248 285 4,400 -720 Descending Indianapolis Center
09:35PM 40.0306 -83.1447 108° East 210 242 4,100 -720 Descending Indianapolis Center
09:36PM 40.0169 -83.0906 108° East 207 238 3,300 -900 Descending Indianapolis Center
09:37PM 40.0092 -83.0581 107° East 150 173 2,900 -660 Descending Indianapolis Center
09:37PM 40.0028 -83.0300 107° East 136 157 2,600 -660 Descending Indianapolis Center
09:38PM 39.9981 -82.9867 98° East 152 175 1,900 -720 Descending Indianapolis Center
09:39PM 39.9969 -82.9425 92° East 134 154 1,300 -540 Descending Indianapolis Center
09:40PM 39.9944 -82.8958 94° East 129 148 900 -420 Descending Indianapolis Center
09:42PM 39.9980 -82.8920 102° East  Level Estimated